Time;durP1;ratioP1;P1;durP2;ratioP2;P2;SDS_P1;SDS_P2;PMS_P1;PMS_P2;Temp;Humidity;BMP_temperature;BMP_pressure;BME280_temperature;BME280_humidity;BME280_pressure;Samples;Min_cycle;Max_cycle;Signal;HPM_P1;HPM_P2
2021/09/08 00:00:18;;;;;;;40.50;36.50;;;;;;;13.75;73.74;101225.54;116770;1189;21930;-78
2021/09/08 00:03:01;;;;;;;43.40;39.00;;;;;;;13.72;73.86;101226.56;116763;1193;22928;-78
2021/09/08 00:05:33;;;;;;;44.40;39.60;;;;;;;13.70;74.00;101228.89;116756;1192;21890;-78
2021/09/08 00:08:05;;;;;;;44.70;38.90;;;;;;;13.68;74.11;101228.98;116740;1193;21919;-77
2021/09/08 00:10:35;;;;;;;42.80;38.30;;;;;;;13.64;73.86;101225.60;116727;1192;21906;-78
2021/09/08 00:13:05;;;;;;;40.40;36.10;;;;;;;13.61;73.73;101225.08;116726;1191;22178;-79
2021/09/08 00:15:34;;;;;;;40.70;36.30;;;;;;;13.57;73.75;101224.11;116733;1192;21899;-77
2021/09/08 00:18:05;;;;;;;40.80;36.40;;;;;;;13.54;73.92;101226.58;116664;1193;22913;-78
2021/09/08 00:20:35;;;;;;;41.90;37.50;;;;;;;13.52;73.80;101225.60;116561;1191;22173;-79
2021/09/08 00:23:05;;;;;;;41.30;36.60;;;;;;;13.49;73.99;101232.77;116602;1191;21900;-79
2021/09/08 00:25:35;;;;;;;41.90;37.60;;;;;;;13.47;74.11;101234.82;116697;1189;21888;-78
2021/09/08 00:28:06;;;;;;;42.50;38.00;;;;;;;13.45;74.05;101232.89;116569;1193;22015;-78
2021/09/08 00:30:35;;;;;;;44.70;37.00;;;;;;;13.41;74.12;101229.15;116780;1189;22687;-78
2021/09/08 00:33:06;;;;;;;40.80;36.50;;;;;;;13.38;74.01;101233.22;116682;1191;21883;-77
2021/09/08 00:35:36;;;;;;;40.70;36.20;;;;;;;13.35;74.02;101233.43;116716;1193;23674;-77
2021/09/08 00:38:13;;;;;;;41.10;36.80;;;;;;;13.33;74.26;101233.43;116895;1189;21869;-77
2021/09/08 00:40:43;;;;;;;44.40;38.00;;;;;;;13.32;74.38;101233.36;116678;1190;23033;-77
2021/09/08 00:43:13;;;;;;;46.00;40.40;;;;;;;13.30;74.48;101235.11;116711;1193;21896;-77
2021/09/08 00:45:50;;;;;;;45.40;39.20;;;;;;;13.29;74.42;101235.11;116634;1190;22696;-77
2021/09/08 00:48:21;;;;;;;46.30;41.30;;;;;;;13.27;74.47;101235.49;116594;1191;21963;-77
2021/09/08 00:50:56;;;;;;;44.80;39.50;;;;;;;13.23;74.71;101238.36;116709;1189;23446;-77
2021/09/08 00:53:29;;;;;;;47.30;42.30;;;;;;;13.23;75.02;101237.66;116644;1189;21918;-78
2021/09/08 00:56:05;;;;;;;44.80;38.70;;;;;;;13.24;75.15;101240.56;116749;1191;22632;-78
2021/09/08 00:58:47;;;;;;;43.10;38.70;;;;;;;13.24;75.21;101237.17;116732;1189;21927;-78
2021/09/08 01:01:21;;;;;;;46.20;38.60;;;;;;;13.24;75.21;101234.98;116753;1186;23557;-78
2021/09/08 01:04:14;;;;;;;47.90;39.40;;;;;;;13.21;75.22;101232.01;116746;1189;21917;-78
2021/09/08 01:07:04;;;;;;;44.20;39.50;;;;;;;13.20;75.22;101233.57;116718;1191;21880;-77
2021/09/08 01:09:36;;;;;;;43.60;38.40;;;;;;;13.19;75.19;101232.04;116791;1192;23556;-77
2021/09/08 01:12:08;;;;;;;42.50;38.00;;;;;;;13.17;74.95;101231.42;116661;1191;21868;-78
2021/09/08 01:14:42;;;;;;;44.60;39.90;;;;;;;13.14;74.97;101235.42;116699;1191;22351;-77
2021/09/08 01:17:12;;;;;;;47.80;40.20;;;;;;;13.08;74.86;101236.08;116709;1191;21911;-77
2021/09/08 01:19:42;;;;;;;45.10;40.40;;;;;;;13.01;74.83;101235.45;116711;1192;21910;-77
2021/09/08 01:22:12;;;;;;;45.00;37.30;;;;;;;12.92;75.05;101235.77;116742;1191;21878;-77
2021/09/08 01:24:43;;;;;;;42.70;37.70;;;;;;;12.85;75.16;101236.20;116705;1186;21894;-77
2021/09/08 01:27:12;;;;;;;41.90;36.60;;;;;;;12.76;75.12;101232.83;116750;1189;22606;-78
2021/09/08 01:29:42;;;;;;;38.80;34.70;;;;;;;12.72;75.41;101233.11;116709;1193;21845;-77
2021/09/08 01:32:12;;;;;;;41.20;36.10;;;;;;;12.71;75.75;101232.01;116711;1193;21886;-78
2021/09/08 01:34:41;;;;;;;39.30;35.10;;;;;;;12.70;75.80;101229.06;116745;1189;21896;-77
2021/09/08 01:37:11;;;;;;;39.00;34.80;;;;;;;12.72;75.94;101232.45;116738;1191;23442;-77
2021/09/08 01:39:41;;;;;;;44.10;38.80;;;;;;;12.71;75.87;101232.20;116553;1191;21906;-78
2021/09/08 01:42:11;;;;;;;41.80;37.10;;;;;;;12.65;75.75;101227.98;116752;1191;21901;-78
2021/09/08 01:44:41;;;;;;;43.30;38.70;;;;;;;12.58;75.74;101227.36;116766;1191;24974;-78
2021/09/08 01:47:10;;;;;;;42.00;37.10;;;;;;;12.52;75.91;101228.29;116604;1192;23629;-78
2021/09/08 01:49:40;;;;;;;42.70;38.20;;;;;;;12.50;76.06;101226.27;116437;1193;21911;-78
2021/09/08 01:52:09;;;;;;;43.50;38.50;;;;;;;12.53;76.49;101221.55;116473;1189;23542;-78
2021/09/08 01:54:39;;;;;;;43.40;38.80;;;;;;;12.56;76.60;101224.91;116468;1192;21903;-77
2021/09/08 01:57:09;;;;;;;41.20;36.80;;;;;;;12.58;76.53;101223.14;116518;1189;21882;-78
2021/09/08 01:59:39;;;;;;;39.30;35.10;;;;;;;12.59;76.60;101223.89;116591;1191;22976;-79
2021/09/08 02:02:10;;;;;;;40.40;36.00;;;;;;;12.61;76.47;101224.59;116580;1191;22918;-78
2021/09/08 02:04:40;;;;;;;40.00;34.90;;;;;;;12.59;76.17;101224.05;116459;1195;21903;-79
2021/09/08 02:07:10;;;;;;;46.10;37.00;;;;;;;12.54;76.11;101221.77;116483;1195;22052;-77
2021/09/08 02:09:41;;;;;;;41.50;37.00;;;;;;;12.49;75.91;101220.19;116569;1190;22612;-77
2021/09/08 02:12:11;;;;;;;39.00;34.90;;;;;;;12.44;76.00;101219.07;116632;1190;23081;-77
2021/09/08 02:14:41;;;;;;;39.90;35.50;;;;;;;12.40;76.01;101221.65;116602;1191;21911;-77
2021/09/08 02:17:11;;;;;;;40.10;35.90;;;;;;;12.35;76.10;101223.23;116514;1194;22039;-77
2021/09/08 02:19:41;;;;;;;38.60;34.40;;;;;;;12.35;76.46;101220.40;116454;1193;21908;-78
2021/09/08 02:22:11;;;;;;;38.40;34.60;;;;;;;12.37;76.74;101212.33;116179;1195;21887;-77
2021/09/08 02:24:40;;;;;;;39.00;35.00;;;;;;;12.40;76.69;101211.34;116254;1194;22630;-77
2021/09/08 02:27:12;;;;;;;43.10;36.00;;;;;;;12.42;76.76;101210.42;116319;1196;23598;-77
2021/09/08 02:29:44;;;;;;;38.80;34.70;;;;;;;12.43;76.63;101212.05;116171;1198;23738;-77
2021/09/08 02:32:14;;;;;;;39.50;35.20;;;;;;;12.43;76.70;101207.89;116248;1195;21905;-77
2021/09/08 02:34:44;;;;;;;38.10;34.20;;;;;;;12.42;76.63;101204.77;116158;1195;23554;-77
2021/09/08 02:37:14;;;;;;;38.90;34.70;;;;;;;12.44;76.64;101208.42;116131;1196;22950;-77
2021/09/08 02:39:44;;;;;;;37.40;33.50;;;;;;;12.43;76.61;101209.08;116208;1196;21904;-77
2021/09/08 02:42:15;;;;;;;40.00;35.90;;;;;;;12.42;76.44;101211.83;116270;1192;22189;-79
2021/09/08 02:44:45;;;;;;;36.70;33.00;;;;;;;12.40;76.40;101210.25;116467;1192;21839;-77
2021/09/08 02:47:16;;;;;;;40.70;36.50;;;;;;;12.39;76.64;101213.02;116504;1189;21898;-77
2021/09/08 02:49:47;;;;;;;37.90;34.10;;;;;;;12.39;76.62;101209.02;116640;1191;23472;-76
2021/09/08 02:52:16;;;;;;;37.30;33.40;;;;;;;12.38;76.51;101208.08;116640;1191;23592;-77
2021/09/08 02:54:46;;;;;;;37.90;34.00;;;;;;;12.37;76.38;101212.25;116559;1192;21896;-78
2021/09/08 02:57:15;;;;;;;37.90;33.30;;;;;;;12.35;76.42;101213.27;116671;1191;23103;-77
2021/09/08 02:59:45;;;;;;;36.90;32.90;;;;;;;12.34;76.55;101212.02;116589;1190;23590;-78
2021/09/08 03:02:15;;;;;;;39.10;34.20;;;;;;;12.34;76.70;101214.66;116702;1191;21937;-77
2021/09/08 03:04:46;;;;;;;38.10;34.30;;;;;;;12.32;76.54;101219.09;116582;1192;21885;-78
2021/09/08 03:07:16;;;;;;;39.60;35.50;;;;;;;12.28;76.32;101217.07;116706;1190;21958;-77
2021/09/08 03:09:46;;;;;;;38.00;34.30;;;;;;;12.22;76.35;101213.54;116346;1195;21904;-77
2021/09/08 03:12:15;;;;;;;37.50;33.70;;;;;;;12.19;76.59;101211.20;116322;1197;22915;-77
2021/09/08 03:14:45;;;;;;;37.20;33.30;;;;;;;12.16;76.49;101209.79;116427;1192;23576;-78
2021/09/08 03:17:15;;;;;;;39.70;33.80;;;;;;;12.07;76.36;101207.89;116400;1192;22958;-77
2021/09/08 03:19:45;;;;;;;36.80;33.20;;;;;;;11.99;76.55;101207.08;116388;1196;22358;-78
2021/09/08 03:22:15;;;;;;;38.90;34.70;;;;;;;11.92;76.67;101204.26;116358;1194;23023;-76
2021/09/08 03:24:44;;;;;;;37.70;33.30;;;;;;;11.88;77.07;101202.02;116388;1195;22348;-77
2021/09/08 03:27:14;;;;;;;36.50;32.70;;;;;;;11.86;77.18;101205.57;116237;1193;23087;-77
2021/09/08 03:29:43;;;;;;;37.40;33.40;;;;;;;11.85;77.32;101205.52;116524;1193;22983;-77
2021/09/08 03:32:13;;;;;;;35.70;32.20;;;;;;;11.83;77.30;101201.88;116570;1191;23432;-76
2021/09/08 03:34:43;;;;;;;37.10;33.30;;;;;;;11.81;77.49;101204.33;116430;1195;21846;-77
2021/09/08 03:37:12;;;;;;;39.30;35.20;;;;;;;11.81;77.66;101205.89;116338;1192;23451;-76
2021/09/08 03:39:42;;;;;;;36.80;33.00;;;;;;;11.81;77.81;101205.92;116359;1194;22942;-77
2021/09/08 03:42:11;;;;;;;37.70;33.80;;;;;;;11.81;78.08;101205.02;116392;1189;23216;-77
2021/09/08 03:44:41;;;;;;;38.40;34.40;;;;;;;11.83;78.09;101204.34;116383;1191;24238;-76
2021/09/08 03:47:11;;;;;;;38.40;34.20;;;;;;;11.83;77.97;101204.11;116388;1195;24238;-77
2021/09/08 03:49:45;;;;;;;37.80;33.70;;;;;;;11.82;78.06;101208.23;116376;1192;21897;-77
2021/09/08 03:52:18;;;;;;;38.80;34.80;;;;;;;11.82;78.06;101213.98;116438;1190;21917;-77
2021/09/08 03:54:48;;;;;;;40.70;36.50;;;;;;;11.81;78.15;101209.11;116604;1192;23501;-76
2021/09/08 03:57:17;;;;;;;37.70;34.10;;;;;;;11.79;78.35;101209.10;116630;1192;21894;-77
2021/09/08 03:59:47;;;;;;;38.80;34.50;;;;;;;11.77;78.36;101211.70;116655;1190;21895;-78
2021/09/08 04:02:16;;;;;;;39.70;35.70;;;;;;;11.78;78.59;101213.30;117456;1193;22631;-79
2021/09/08 04:04:46;;;;;;;40.40;35.80;;;;;;;11.77;78.55;101216.89;116585;1193;22003;-79
2021/09/08 04:07:16;;;;;;;39.80;35.60;;;;;;;11.75;78.61;101217.05;116606;1193;21882;-79
2021/09/08 04:09:46;;;;;;;38.80;34.70;;;;;;;11.73;78.81;101217.45;116531;1193;21878;-78
2021/09/08 04:12:15;;;;;;;37.80;33.80;;;;;;;11.71;78.88;101217.61;116541;1190;21891;-78
2021/09/08 04:14:44;;;;;;;39.90;35.80;;;;;;;11.72;79.03;101214.95;116515;1191;23354;-78
2021/09/08 04:17:13;;;;;;;41.70;35.50;;;;;;;11.74;79.12;101215.19;116530;1193;21975;-79
2021/09/08 04:19:43;;;;;;;38.20;34.30;;;;;;;11.73;79.02;101217.60;116437;1193;21909;-79
2021/09/08 04:22:12;;;;;;;37.30;33.30;;;;;;;11.70;79.07;101214.73;116367;1194;24209;-76
2021/09/08 04:24:48;;;;;;;36.20;32.50;;;;;;;11.67;79.17;101222.11;116225;1197;22093;-77
2021/09/08 04:27:19;;;;;;;36.40;32.70;;;;;;;11.64;79.12;101226.32;116353;1197;21893;-78
2021/09/08 04:29:49;;;;;;;38.30;34.10;;;;;;;11.64;79.41;101231.20;116189;1191;21899;-77
2021/09/08 04:32:18;;;;;;;44.10;34.60;;;;;;;11.66;79.41;101231.90;116319;1189;22061;-77
2021/09/08 04:34:50;;;;;;;39.60;35.30;;;;;;;11.70;79.69;101236.23;116358;1191;21879;-78
2021/09/08 04:37:23;;;;;;;39.50;33.50;;;;;;;11.75;79.69;101234.92;116300;1194;22918;-78
2021/09/08 04:39:52;;;;;;;38.70;34.60;;;;;;;11.78;79.55;101231.39;116279;1192;22025;-77
2021/09/08 04:42:26;;;;;;;37.20;33.40;;;;;;;11.82;79.55;101229.84;116251;1195;21927;-78
2021/09/08 04:45:01;;;;;;;40.50;34.60;;;;;;;11.84;79.53;101229.58;116307;1195;21910;-78
2021/09/08 04:47:33;;;;;;;36.70;32.90;;;;;;;11.86;79.36;101228.40;116814;1193;22819;-77
2021/09/08 04:50:08;;;;;;;35.40;31.90;;;;;;;11.87;79.36;101230.00;116341;1195;21899;-78
2021/09/08 04:52:38;;;;;;;43.10;35.30;;;;;;;11.91;79.40;101230.36;116487;1194;23017;-79
2021/09/08 04:55:11;;;;;;;36.70;32.90;;;;;;;11.95;79.46;101234.27;116449;1194;21908;-78
2021/09/08 04:57:40;;;;;;;36.90;33.00;;;;;;;11.99;79.42;101236.52;116412;1192;22932;-77
2021/09/08 05:00:14;;;;;;;38.10;32.80;;;;;;;12.05;79.48;101238.13;116087;1196;21894;-77
2021/09/08 05:02:44;;;;;;;39.90;35.90;;;;;;;12.09;79.33;101239.92;116074;1197;22979;-77
2021/09/08 05:05:17;;;;;;;39.90;35.70;;;;;;;12.10;79.09;101239.86;116131;1198;21911;-77
2021/09/08 05:07:47;;;;;;;42.00;36.30;;;;;;;12.09;78.98;101242.10;115943;1198;21980;-77
2021/09/08 05:10:16;;;;;;;37.10;33.30;;;;;;;12.10;79.13;101240.56;116170;1195;21918;-79
2021/09/08 05:12:46;;;;;;;40.50;36.20;;;;;;;12.15;79.26;101243.37;115816;1200;21930;-79
2021/09/08 05:15:16;;;;;;;38.00;34.10;;;;;;;12.19;79.22;101245.48;115806;1201;23572;-78
2021/09/08 05:17:46;;;;;;;40.10;35.90;;;;;;;12.25;79.23;101247.55;115925;1198;22003;-78
2021/09/08 05:20:18;;;;;;;38.20;34.60;;;;;;;12.31;79.11;101248.88;116224;1197;22637;-80
2021/09/08 05:23:01;;;;;;;40.20;36.00;;;;;;;12.37;79.27;101254.58;116433;1198;24159;-79
2021/09/08 05:25:30;;;;;;;40.00;35.70;;;;;;;12.43;79.24;101253.42;116060;1196;21903;-78
2021/09/08 05:28:00;;;;;;;39.70;35.30;;;;;;;12.48;78.98;101256.80;116364;1190;21893;-78
2021/09/08 05:30:37;;;;;;;38.40;34.40;;;;;;;12.53;78.85;101254.23;116393;1193;22211;-79
2021/09/08 05:33:32;;;;;;;37.80;33.90;;;;;;;12.59;79.00;101254.44;116858;1191;21885;-80
2021/09/08 05:36:05;;;;;;;36.10;32.40;;;;;;;12.67;78.81;101255.16;116346;1195;21906;-77
2021/09/08 05:38:40;;;;;;;39.70;35.60;;;;;;;12.73;78.48;101255.81;116265;1193;23464;-79
2021/09/08 05:41:20;;;;;;;38.10;34.20;;;;;;;12.80;78.48;101260.45;115939;1196;21907;-78
2021/09/08 05:43:58;;;;;;;41.00;35.00;;;;;;;12.84;78.15;101258.05;116147;1199;22225;-78
2021/09/08 05:46:30;;;;;;;42.60;35.70;;;;;;;12.88;78.17;101257.04;116156;1192;23529;-81
2021/09/08 05:49:03;;;;;;;40.40;36.20;;;;;;;12.96;78.18;101256.80;116111;1197;21922;-78
2021/09/08 05:51:32;;;;;;;42.70;35.60;;;;;;;13.04;78.14;101256.48;116009;1196;22227;-78
2021/09/08 05:54:04;;;;;;;38.30;34.50;;;;;;;13.13;78.09;101252.33;116002;1199;22096;-79
2021/09/08 05:56:34;;;;;;;38.30;34.20;;;;;;;13.25;78.34;101246.83;116066;1195;21901;-78
2021/09/08 05:59:03;;;;;;;38.60;34.50;;;;;;;13.39;78.23;101249.09;115919;1195;21896;-79
2021/09/08 06:01:33;;;;;;;38.20;34.20;;;;;;;13.53;78.07;101246.68;116225;1191;23559;-80
2021/09/08 06:04:04;;;;;;;36.70;33.10;;;;;;;13.69;78.15;101246.87;116448;1192;21890;-82
2021/09/08 06:06:42;;;;;;;39.40;35.20;;;;;;;13.89;78.34;101246.44;116448;1193;23556;-81
2021/09/08 06:09:14;;;;;;;42.40;34.90;;;;;;;14.15;78.28;101244.50;116215;1198;22063;-80
2021/09/08 06:11:48;;;;;;;35.80;32.20;;;;;;;14.43;78.18;101243.91;116406;1200;21896;-81
2021/09/08 06:14:33;;;;;;;;;;;;;;;;;;;;;
2021/09/08 06:17:20;;;;;;;36.90;33.10;;;;;;;15.16;77.71;101240.79;116617;1195;22649;-80
2021/09/08 06:19:50;;;;;;;36.40;32.60;;;;;;;15.59;77.02;101240.92;116294;1201;21906;-85
2021/09/08 06:22:33;;;;;;;41.50;35.10;;;;;;;16.00;76.09;101239.26;116223;1195;21899;-81
2021/09/08 06:25:04;;;;;;;41.00;34.00;;;;;;;16.36;74.39;101241.55;116185;1198;21905;-81
2021/09/08 06:27:38;;;;;;;38.10;34.20;;;;;;;16.70;73.26;101241.65;116771;1195;21897;-85
2021/09/08 06:30:11;;;;;;;37.80;32.80;;;;;;;16.99;71.67;101235.98;116889;1190;23635;-83
2021/09/08 06:32:46;;;;;;;37.00;33.00;;;;;;;17.33;71.34;101236.27;116675;1194;23636;-80
2021/09/08 06:35:18;;;;;;;36.30;31.30;;;;;;;17.68;70.04;101235.95;116658;1194;21925;-80
2021/09/08 06:38:07;;;;;;;33.30;29.40;;;;;;;17.99;68.75;101234.53;116659;1193;21920;-79
2021/09/08 06:40:37;;;;;;;36.70;28.20;;;;;;;18.26;68.01;101230.96;116593;1194;22927;-80
2021/09/08 06:43:06;;;;;;;31.30;28.10;;;;;;;18.56;67.42;101231.73;116744;1192;24160;-80
2021/09/08 06:45:39;;;;;;;29.70;26.80;;;;;;;18.91;67.15;101230.05;116565;1194;22311;-80
2021/09/08 06:48:08;;;;;;;30.10;27.20;;;;;;;19.24;65.91;101231.61;116325;1197;23648;-80
2021/09/08 06:50:38;;;;;;;27.80;24.90;;;;;;;19.48;65.13;101227.56;115920;1196;22936;-80
2021/09/08 06:53:07;;;;;;;33.20;29.90;;;;;;;19.76;64.91;101230.35;116146;1198;23561;-82
2021/09/08 06:55:37;;;;;;;31.20;28.10;;;;;;;20.09;63.91;101229.95;116074;1201;21933;-80
2021/09/08 06:58:06;;;;;;;26.10;23.30;;;;;;;20.36;61.92;101228.85;115655;1202;22977;-80
2021/09/08 07:00:36;;;;;;;30.90;24.70;;;;;;;20.58;61.33;101233.14;115514;1204;21914;-80
2021/09/08 07:03:07;;;;;;;26.70;23.50;;;;;;;20.91;61.27;101233.90;115827;1202;21920;-80
2021/09/08 07:05:42;;;;;;;28.10;25.10;;;;;;;21.19;60.06;101228.55;116099;1199;21899;-80
2021/09/08 07:08:39;;;;;;;26.60;23.70;;;;;;;21.41;58.81;101230.31;116437;1193;21878;-80
2021/09/08 07:11:42;;;;;;;28.80;25.80;;;;;;;21.71;58.53;101232.33;116360;1197;21915;-80
2021/09/08 07:14:19;;;;;;;26.90;23.40;;;;;;;21.94;57.66;101229.09;116442;1195;21897;-80
2021/09/08 07:17:00;;;;;;;28.10;25.10;;;;;;;22.12;56.56;101230.50;116255;1200;22936;-81
2021/09/08 07:20:00;;;;;;;34.30;27.50;;;;;;;22.42;56.59;101230.15;116409;1199;21928;-80
2021/09/08 07:22:43;;;;;;;30.10;22.30;;;;;;;22.75;56.08;101230.98;116332;1196;21895;-80
2021/09/08 07:25:26;;;;;;;28.10;25.30;;;;;;;23.08;54.72;101230.02;116576;1195;21939;-80
2021/09/08 07:28:06;;;;;;;28.10;24.60;;;;;;;23.27;53.68;101231.55;116657;1196;22950;-80
2021/09/08 07:30:35;;;;;;;28.50;24.00;;;;;;;23.52;53.50;101231.30;116646;1191;21969;-81
2021/09/08 07:33:04;;;;;;;26.10;23.20;;;;;;;23.72;52.64;101230.52;116698;1196;21957;-81
2021/09/08 07:35:34;;;;;;;25.60;22.90;;;;;;;23.88;52.28;101233.23;116887;1194;21914;-82
2021/09/08 07:38:07;;;;;;;26.70;23.40;;;;;;;24.07;51.66;101234.13;117081;1194;21887;-81
2021/09/08 07:40:36;;;;;;;27.90;24.90;;;;;;;24.27;51.10;101236.21;116604;1195;21895;-78
2021/09/08 07:43:06;;;;;;;29.00;23.50;;;;;;;24.44;50.74;101235.06;116633;1190;24139;-78
2021/09/08 07:45:35;;;;;;;28.30;25.20;;;;;;;24.69;50.32;101236.10;116497;1194;21896;-78
2021/09/08 07:48:05;;;;;;;27.00;24.10;;;;;;;24.74;48.76;101239.98;115734;1200;21931;-77
2021/09/08 07:50:35;;;;;;;29.10;22.40;;;;;;;24.69;48.46;101242.00;116079;1200;22878;-78
2021/09/08 07:53:09;;;;;;;26.10;21.80;;;;;;;24.80;48.95;101240.21;115958;1198;22290;-78
2021/09/08 07:55:39;;;;;;;23.30;20.50;;;;;;;24.93;47.79;101243.61;115976;1198;21903;-78
2021/09/08 07:58:09;;;;;;;25.80;21.90;;;;;;;24.92;47.61;101247.42;115770;1202;21977;-78
2021/09/08 08:00:39;;;;;;;24.60;21.30;;;;;;;24.97;48.18;101244.94;115721;1201;22656;-77
2021/09/08 08:03:09;;;;;;;23.80;21.30;;;;;;;25.09;47.77;101246.63;115781;1199;22923;-79
2021/09/08 08:05:40;;;;;;;24.10;21.60;;;;;;;25.26;48.32;101246.88;116127;1194;21977;-78
2021/09/08 08:08:14;;;;;;;23.70;20.30;;;;;;;25.49;48.20;101250.20;116301;1196;22930;-78
2021/09/08 08:10:48;;;;;;;27.80;21.70;;;;;;;25.75;47.86;101252.42;116255;1194;24474;-78
2021/09/08 08:13:19;;;;;;;32.00;20.40;;;;;;;25.93;47.29;101255.31;116466;1192;21920;-79
2021/09/08 08:15:48;;;;;;;24.50;20.50;;;;;;;26.13;47.28;101257.05;116507;1196;21889;-78
2021/09/08 08:18:21;;;;;;;23.10;19.30;;;;;;;26.33;46.62;101260.36;116448;1196;21894;-78
2021/09/08 08:20:58;;;;;;;24.10;19.10;;;;;;;26.40;45.12;101259.38;116398;1192;23458;-79
2021/09/08 08:23:32;;;;;;;23.40;21.10;;;;;;;26.51;45.19;101260.46;116610;1189;21902;-79
2021/09/08 08:26:13;;;;;;;22.50;18.50;;;;;;;26.58;43.93;101262.83;116691;1191;21880;-78
2021/09/08 08:28:43;;;;;;;22.00;19.70;;;;;;;26.52;43.72;101261.29;116892;1193;22057;-79
2021/09/08 08:31:13;;;;;;;20.50;18.40;;;;;;;26.53;43.51;101261.48;116508;1191;23276;-78
2021/09/08 08:33:43;;;;;;;19.90;17.80;;;;;;;26.53;42.58;101259.42;116612;1192;23593;-79
2021/09/08 08:36:13;;;;;;;20.90;18.70;;;;;;;26.53;42.91;101255.83;116834;1192;21945;-80
2021/09/08 08:38:49;;;;;;;19.90;17.80;;;;;;;26.73;42.70;101255.08;116623;1194;23706;-79
2021/09/08 08:41:20;;;;;;;19.80;17.80;;;;;;;26.82;41.89;101255.73;116682;1192;21895;-78
2021/09/08 08:43:51;;;;;;;23.10;18.50;;;;;;;26.77;40.58;101260.98;116744;1193;22970;-78
2021/09/08 08:48:14;;;;;;;;;;;;;;;;;;;;;
2021/09/08 08:51:05;;;;;;;18.80;16.80;;;;;;;26.71;41.02;101257.73;116233;1194;22228;-79
2021/09/08 08:53:44;;;;;;;18.20;16.30;;;;;;;26.83;40.88;101256.67;116373;1197;22060;-80
2021/09/08 08:56:19;;;;;;;19.90;16.30;;;;;;;27.02;40.88;101254.33;116286;1197;23543;-81
2021/09/08 08:58:55;;;;;;;17.70;16.00;;;;;;;27.13;39.96;101255.61;116403;1194;21906;-79
2021/09/08 09:01:32;;;;;;;20.30;15.90;;;;;;;27.28;39.96;101256.61;116615;1196;22037;-80
2021/09/08 09:04:09;;;;;;;19.40;17.00;;;;;;;27.47;39.56;101252.71;116308;1195;21857;-80
2021/09/08 09:06:50;;;;;;;20.30;15.80;;;;;;;27.73;39.06;101247.72;116499;1198;21910;-79
2021/09/08 09:09:19;;;;;;;22.00;16.60;;;;;;;27.92;38.72;101247.80;116532;1194;23100;-79
2021/09/08 09:11:50;;;;;;;18.60;16.70;;;;;;;28.12;38.52;101247.02;116054;1199;21890;-79
2021/09/08 09:14:19;;;;;;;17.70;15.90;;;;;;;28.24;37.72;101243.70;115820;1198;21939;-79
2021/09/08 09:16:49;;;;;;;18.00;16.10;;;;;;;28.24;37.00;101245.05;116320;1196;21901;-80
2021/09/08 09:19:19;;;;;;;17.40;15.50;;;;;;;28.07;36.22;101246.38;116220;1198;21917;-80
2021/09/08 09:21:52;;;;;;;18.40;15.90;;;;;;;27.82;36.71;101246.21;116473;1199;23563;-79
2021/09/08 09:24:27;;;;;;;17.00;15.40;;;;;;;27.65;36.90;101243.73;116059;1196;23703;-79
2021/09/08 09:26:57;;;;;;;16.20;14.50;;;;;;;27.52;36.99;101241.61;116310;1196;22915;-78
2021/09/08 09:29:45;;;;;;;15.70;14.20;;;;;;;27.52;37.27;101240.70;116517;1190;21936;-78
2021/09/08 09:32:46;;;;;;;15.20;13.80;;;;;;;27.53;36.50;101236.41;116327;1196;21914;-79
2021/09/08 09:35:48;;;;;;;;;;;;;;;;;;;;;
2021/09/08 09:39:05;;;;;;;15.20;13.70;;;;;;;27.30;36.24;101234.77;116298;1195;21932;-78
2021/09/08 09:41:49;;;;;;;13.70;12.30;;;;;;;27.42;36.73;101223.09;116329;1196;21909;-78
2021/09/08 09:44:19;;;;;;;13.30;12.20;;;;;;;27.53;36.03;101219.83;116365;1198;21906;-78
2021/09/08 09:47:06;;;;;;;;;;;;;;;;;;;;;
2021/09/08 09:54:40;;;;;;;16.10;14.50;;;;;;;27.63;35.33;101215.81;116418;1193;22732;-78
2021/09/08 09:57:27;;;;;;;16.70;15.10;;;;;;;27.62;35.19;101215.00;116495;1194;21991;-79
2021/09/08 09:59:58;;;;;;;16.00;14.40;;;;;;;27.66;35.71;101212.47;116459;1192;22708;-79
2021/09/08 10:02:28;;;;;;;23.60;15.30;;;;;;;27.82;35.73;101207.12;116522;1192;22917;-78
2021/09/08 10:05:02;;;;;;;17.60;14.40;;;;;;;28.03;35.72;101200.61;116497;1193;21882;-78
2021/09/08 10:07:43;;;;;;;15.70;14.10;;;;;;;28.33;35.16;101200.59;116198;1196;21882;-78
2021/09/08 10:10:31;;;;;;;17.30;15.60;;;;;;;28.49;34.27;101202.54;116222;1196;22922;-77
2021/09/08 10:13:38;;;;;;;17.30;15.70;;;;;;;28.45;33.73;101197.96;116141;1199;22359;-77
2021/09/08 10:16:11;;;;;;;17.00;15.20;;;;;;;28.45;33.87;101192.95;116146;1196;21916;-79
2021/09/08 10:18:51;;;;;;;17.00;15.30;;;;;;;28.48;33.77;101190.73;116295;1194;24154;-78
2021/09/08 10:21:36;;;;;;;17.60;15.80;;;;;;;28.55;33.77;101189.45;116316;1193;21903;-79
2021/09/08 10:24:48;;;;;;;18.80;15.00;;;;;;;28.67;33.63;101185.73;116535;1193;21892;-79
2021/09/08 10:27:33;;;;;;;16.20;14.60;;;;;;;28.69;33.42;101185.89;116918;1190;21896;-80
2021/09/08 10:30:15;;;;;;;16.00;14.50;;;;;;;28.71;33.71;101184.85;116775;1191;21894;-79
2021/09/08 10:32:47;;;;;;;17.50;15.70;;;;;;;28.82;34.07;101182.44;116617;1191;21846;-79
2021/09/08 10:35:27;;;;;;;15.60;14.00;;;;;;;29.02;33.30;101179.27;116453;1192;22919;-76
2021/09/08 10:38:03;;;;;;;14.70;13.40;;;;;;;28.85;32.44;101177.17;116450;1191;21900;-76
2021/09/08 10:40:33;;;;;;;17.90;13.70;;;;;;;28.45;32.56;101172.88;116159;1192;22957;-76
2021/09/08 10:43:04;;;;;;;15.40;13.80;;;;;;;28.08;33.14;101169.52;116057;1192;21906;-76
2021/09/08 10:45:34;;;;;;;16.00;14.50;;;;;;;27.92;34.17;101164.27;115884;1198;21921;-76
2021/09/08 10:48:07;;;;;;;16.30;13.60;;;;;;;27.81;34.30;101164.43;115721;1198;21907;-76
2021/09/08 10:50:47;;;;;;;14.60;13.30;;;;;;;27.56;34.38;101162.96;115561;1201;21931;-76
2021/09/08 10:53:40;;;;;;;15.40;13.80;;;;;;;27.31;34.69;101156.58;115196;1202;21908;-76
2021/09/08 10:56:11;;;;;;;13.20;11.90;;;;;;;27.06;35.02;101156.73;114754;1205;23715;-76
2021/09/08 10:59:00;;;;;;;22.00;13.80;;;;;;;26.88;35.04;101152.07;114796;1206;21952;-76
2021/09/08 11:01:31;;;;;;;17.60;15.50;;;;;;;26.75;34.95;101150.77;114961;1201;21927;-76
2021/09/08 11:04:11;;;;;;;15.00;13.40;;;;;;;26.59;35.28;101148.39;114746;1206;21861;-73
2021/09/08 11:06:47;;;;;;;15.10;13.70;;;;;;;26.41;34.97;101144.91;115042;1204;21923;-75
2021/09/08 11:09:19;;;;;;;15.60;14.00;;;;;;;26.30;35.38;101138.70;115540;1202;21881;-76
2021/09/08 11:12:10;;;;;;;19.70;14.80;;;;;;;26.22;35.62;101139.55;115529;1200;21898;-76
2021/09/08 11:14:49;;;;;;;;;;;;;;;26.10;35.95;101134.86;115749;1198;22162;-76
2021/09/08 11:17:26;;;;;;;16.30;14.60;;;;;;;25.92;36.42;101132.35;115813;1194;23483;-76
2021/09/08 11:20:01;;;;;;;17.10;15.20;;;;;;;25.85;36.66;101133.77;115759;1198;21906;-76
2021/09/08 11:22:31;;;;;;;15.00;13.50;;;;;;;25.79;37.11;101129.67;115946;1196;23412;-76
2021/09/08 11:25:07;;;;;;;18.10;14.60;;;;;;;25.72;37.50;101124.31;115333;1198;22063;-76
2021/09/08 11:27:40;;;;;;;15.20;13.70;;;;;;;25.67;37.82;101122.40;115740;1197;21915;-76
2021/09/08 11:30:16;;;;;;;16.90;15.10;;;;;;;25.65;37.67;101123.40;115454;1198;24247;-77
2021/09/08 11:33:03;;;;;;;14.20;13.00;;;;;;;25.58;37.36;101118.80;115540;1198;23540;-78
2021/09/08 11:35:39;;;;;;;13.70;12.30;;;;;;;25.47;36.87;101115.52;116031;1196;22949;-76
2021/09/08 11:38:14;;;;;;;14.50;13.00;;;;;;;25.39;36.89;101114.73;115878;1199;21910;-76
2021/09/08 11:40:52;;;;;;;13.90;12.60;;;;;;;25.29;36.68;101110.33;115960;1196;23659;-78
2021/09/08 11:43:49;;;;;;;12.80;11.40;;;;;;;25.19;36.58;101109.41;115910;1196;21921;-76